Portada
METAR-TAF:

METAR-TAF

Aeroports :

Aeroport de Jiddah Rei Abdulaziz

Jiddah, Aràbia Saudita

latitud: 21-42N, longitud: 039-11E, altitud: 15 m

Observació

L'informe es va fer fa 44 minuts, a les 16:00 UTC
Vent 6 kt del Nord/Nord-Oest
Temperatura 33°C
Humitat 49%
Pressió 1008 hPa
Visibilitat 10 km o més
sense núvols per sota de 1500 mi sense presència de cumulonimbus.

METAR: OEJN 271600Z 33006KT CAVOK 33/21 Q1008 NOSIG

Hora: 19:44 (16:44 UTC)

Pronòstic

L'informe es va fer fa 5 hores i 44 minuts, a les 11:00 UTC
Pronòstic vàlid del 27 a les 12 UTC al 28 a les 18 UTC
Vent 16 kt del Nord/Nord-Oest
Visibilitat: 8000 m
Evolucionant progressivament
l' 27 a les 18 UTC al 27 a les 20 UTC
Vent 8 kt del Nord/Nord-Est

TAF: OEJN 271100Z 2712/2818 33016KT 8000 NSC BECMG 2718/2720 03008KT

Observacions i pronòstics meteorològics de més de 4000 aeroports (METAR i TAF).

Les estacions disponibles són els punts grocs i vermells al mapa.

Posi el ratolí al punt desitjat per veure el nom de l'estació.

Feu clic per veure les observacions i els pronòstics meteorològics.

Per canviar el mapa: feu clic els botons verds amb una creu de color negre per apropar; al botó verd amb un guió per allunyar la imatge; o en les fletxes verdes per a mapes adjacents.


METAR-TAF: